Aérodrome :
LOGIN :

S'inscrire | Disclaimer

   EN    FR    IT 

 










Légende :    VFR   VFR Marginal   IFR   IFR Intensif   IFR Très Intensif
Visi : 
Plafond : 
>= 8 km
>= 3000ft
5 à 8 km
1000 à 3000 ft
1500m à 5 km
500 à 1000 ft
800 à 1500m
200 à 500 ft
< 800m
< 200 ft
Symboles :   Orages  Brouillard  Fortes neiges  Fortes précipitations  Vent > 20 kt
SIGMETs :   Divers  Orages  Givrage  Turbulence  Onde Orograph.  Cendres Volcan.






- Altitude de l'aérodrome : 135 ft
- Code IATA : EDI


EGPH - Edinburgh

DERNIER METAR :
  • 150920Z VRB02KT 5000 BR BKN003 09/09 Q1002

METARs EXPIRÉS :
  • 150850Z 23005KT 4500 BR OVC004 09/09 Q1003
  • 150820Z VRB03KT 5000 BR BKN004 09/09 Q1002
  • 150750Z VRB03KT 4900 BR BKN005 08/08 Q1002
  • 150720Z 26003KT 6000 OVC006 08/08 Q1003
  • 150650Z 24002KT 7000 BKN007 08/08 Q1003

TAF AMD TAF EGPH
Valide du 15 à 08h jusqu'au 16 à 06h UTC


150836Z 1508/1606 VRB04KT 9999 SCT005 BKN012
TEMPO 1508/1512 4000 -RADZ BR BKN004
PROB40
TEMPO 1508/1512 SCT016
BECMG 1512/1515 SCT020
PROB30
TEMPO 1517/1520 6000
BECMG 1519/1522 08010KT
PROB30
TEMPO 1522/1602 BKN012
TEMPO 1602/1606 7000 -RA BKN012
ATIS : +44 131 339 2823



MET'MAP, la Météo Aéronautique d'un coup d'oeil ! - Copyright ORBIFLY Décembre 2007 - Disclaimer

ORBIFLY MET'MAP TEAM :

Programmation & Développement : Alexandra Zaïnal
Conception & Développement : Baudouin d'Aumeries
Co-Programmation & Développement : Marc-Olivier Méhu
Soutien technique & logistique : Manuel Goepfert

Contact : metmap@orbifly.com




SOURCES & CREDITS :

   NOAA